Time;durP1;ratioP1;P1;durP2;ratioP2;P2;SDS_P1;SDS_P2;PMS_P1;PMS_P2;Temp;Humidity;BMP_temperature;BMP_pressure;BME280_temperature;BME280_humidity;BME280_pressure;Samples;Min_cycle;Max_cycle;Signal;HPM_P1;HPM_P2
2023/08/24 00:01:06;;;;;;;;;10.00;7.00;;;;;25.95;80.17;101300.53;5082581;27;45528;-74
2023/08/24 00:03:32;;;;;;;;;10.00;8.00;;;;;25.93;80.08;101299.84;5083364;27;45513;-74
2023/08/24 00:05:58;;;;;;;;;8.00;6.67;;;;;25.87;80.10;101281.53;5094065;27;45375;-74
2023/08/24 00:08:23;;;;;;;;;8.33;6.67;;;;;25.96;80.35;101290.53;5093709;27;45337;-74
2023/08/24 00:10:49;;;;;;;;;7.33;5.67;;;;;25.94;80.28;101293.44;5086366;27;46861;-74
2023/08/24 00:13:15;;;;;;;;;9.50;7.00;;;;;25.94;80.41;101279.03;5083589;27;45294;-74
2023/08/24 00:15:41;;;;;;;;;8.67;8.67;;;;;25.91;80.56;101277.50;5090844;27;45355;-74
2023/08/24 00:18:06;;;;;;;;;7.00;7.00;;;;;25.89;80.70;101274.94;5082925;27;45270;-74
2023/08/24 00:20:32;;;;;;;;;10.00;8.33;;;;;25.88;80.05;101283.22;5080873;27;45530;-74
2023/08/24 00:22:59;;;;;;;;;9.33;9.33;;;;;25.83;80.98;101274.72;5080762;27;45424;-74
2023/08/24 00:25:25;;;;;;;;;8.67;7.33;;;;;25.74;80.08;101267.53;5088515;27;45336;-75
2023/08/24 00:27:54;;;;;;;;;9.00;9.00;;;;;25.71;79.60;101263.31;5085552;27;45513;-74
2023/08/24 00:30:20;;;;;;;;;11.33;8.00;;;;;25.70;79.03;101271.56;5098167;27;46178;-74
2023/08/24 00:32:45;;;;;;;;;11.00;9.67;;;;;25.64;79.38;101261.38;5096917;27;45475;-74
2023/08/24 00:35:11;;;;;;;;;8.33;8.00;;;;;25.72;82.14;101283.13;5088807;27;45678;-74
2023/08/24 00:37:37;;;;;;;;;8.00;8.00;;;;;25.67;80.69;101282.72;5085716;27;45348;-74
2023/08/24 00:40:07;;;;;;;;;10.67;9.00;;;;;25.64;79.63;101275.78;5086713;27;46212;-74
2023/08/24 00:42:33;;;;;;;;;10.33;9.33;;;;;25.58;79.62;101271.00;5079687;28;45410;-74
2023/08/24 00:44:58;;;;;;;;;7.67;7.00;;;;;25.55;80.87;101274.03;5078928;27;45367;-75
2023/08/24 00:47:24;;;;;;;;;9.33;7.33;;;;;25.55;79.91;101276.72;5080757;27;45340;-74
2023/08/24 00:49:50;;;;;;;;;7.67;7.67;;;;;25.53;80.82;101283.28;5080277;27;45428;-74
2023/08/24 00:52:16;;;;;;;;;8.67;7.33;;;;;25.48;80.28;101280.19;5080541;27;45269;-74
2023/08/24 00:54:42;;;;;;;;;8.67;7.67;;;;;25.45;80.49;101283.19;5072334;28;45302;-74
2023/08/24 00:57:07;;;;;;;;;9.00;5.33;;;;;25.39;80.77;101265.72;5098849;27;45307;-74
2023/08/24 00:59:34;;;;;;;;;9.33;8.00;;;;;25.33;81.82;101263.63;5086366;27;45360;-74
2023/08/24 01:01:59;;;;;;;;;7.00;7.00;;;;;25.35;80.59;101272.47;5080360;27;45400;-74
2023/08/24 01:04:25;;;;;;;;;7.00;6.00;;;;;25.31;81.76;101271.91;5088787;27;45514;-74
2023/08/24 01:06:52;;;;;;;;;11.00;7.67;;;;;25.28;82.46;101266.81;5081741;27;45320;-74
2023/08/24 01:09:18;;;;;;;;;7.00;7.00;;;;;25.26;83.00;101271.50;5079249;28;45362;-74
2023/08/24 01:12:01;;;;;;;;;7.00;6.33;;;;;25.07;83.08;101247.31;5079032;27;45289;-74
2023/08/24 01:14:45;;;;;;;;;9.33;8.00;;;;;25.06;82.84;101253.75;5078862;27;45365;-74
2023/08/24 01:17:16;;;;;;;;;9.00;9.00;;;;;25.15;84.00;101268.22;5086570;27;45407;-74
2023/08/24 01:19:43;;;;;;;;;8.33;7.00;;;;;25.11;84.39;101283.06;5076189;27;47262;-74
2023/08/24 01:22:31;;;;;;;;;13.67;10.33;;;;;25.08;84.63;101277.94;5084765;27;45379;-74
2023/08/24 01:25:20;;;;;;;;;7.33;7.33;;;;;24.98;85.62;101272.59;5081571;27;45407;-75
2023/08/24 01:27:48;;;;;;;;;9.00;7.33;;;;;24.97;85.96;101262.78;5080899;27;45364;-74
2023/08/24 01:30:14;;;;;;;;;5.00;5.00;;;;;24.96;86.42;101265.66;5078947;27;45370;-74
2023/08/24 01:32:40;;;;;;;;;7.00;7.00;;;;;24.92;86.04;101259.69;5079208;27;45238;-74
2023/08/24 01:35:08;;;;;;;;;8.00;7.00;;;;;24.83;86.49;101247.94;5089320;27;45346;-74
2023/08/24 01:37:35;;;;;;;;;7.00;7.00;;;;;24.81;86.01;101244.50;5077527;27;45367;-74
2023/08/24 01:40:13;;;;;;;;;7.00;7.00;;;;;24.84;86.68;101246.06;5085723;27;45526;-75
2023/08/24 01:42:53;;;;;;;;;11.00;10.00;;;;;24.81;87.26;101246.34;5078665;28;45387;-75
2023/08/24 01:45:21;;;;;;;;;7.67;7.67;;;;;24.77;87.71;101243.09;5079654;27;45391;-75
2023/08/24 01:47:48;;;;;;;;;10.00;9.00;;;;;24.65;87.89;101222.69;5078796;28;45569;-75
2023/08/24 01:50:14;;;;;;;;;9.00;8.00;;;;;24.71;88.13;101234.72;5079440;27;45379;-74
2023/08/24 01:52:41;;;;;;;;;6.00;6.00;;;;;24.64;88.47;101217.44;5088221;27;45304;-74
2023/08/24 01:55:07;;;;;;;;;5.33;5.33;;;;;24.73;89.77;101235.44;5080704;27;45530;-74
2023/08/24 01:57:32;;;;;;;;;9.00;7.67;;;;;24.63;88.23;101226.56;5099190;27;45438;-74
2023/08/24 01:59:58;;;;;;;;;10.00;10.00;;;;;24.69;88.81;101232.19;5077868;27;48284;-74
2023/08/24 02:02:24;;;;;;;;;8.00;7.33;;;;;24.64;88.45;101223.69;5079606;27;45324;-74
2023/08/24 02:04:50;;;;;;;;;7.67;7.67;;;;;24.61;88.35;101218.56;5091015;27;45532;-74
2023/08/24 02:07:15;;;;;;;;;11.00;9.00;;;;;24.52;88.70;101214.09;5086831;27;45655;-74
2023/08/24 02:09:40;;;;;;;;;10.67;9.00;;;;;24.62;89.38;101228.41;5083542;27;45388;-75
2023/08/24 02:12:06;;;;;;;;;7.67;7.67;;;;;24.63;90.00;101223.84;5078113;28;50303;-74
2023/08/24 02:14:31;;;;;;;;;6.33;6.33;;;;;24.59;89.78;101220.59;5078383;27;45437;-74
2023/08/24 02:16:56;;;;;;;;;9.33;7.67;;;;;24.59;89.10;101225.16;5086029;27;45466;-75
2023/08/24 02:19:22;;;;;;;;;8.67;8.67;;;;;24.54;89.75;101220.19;5083589;27;46045;-74
2023/08/24 02:21:47;;;;;;;;;10.33;9.00;;;;;24.54;89.45;101216.66;5076869;27;49476;-74
2023/08/24 02:24:12;;;;;;;;;9.00;7.67;;;;;24.53;90.61;101215.78;5077745;27;45363;-74
2023/08/24 02:26:37;;;;;;;;;8.67;8.33;;;;;24.47;89.52;101205.59;5085083;27;49212;-74
2023/08/24 02:29:03;;;;;;;;;8.00;8.00;;;;;24.48;90.07;101201.00;5078110;28;54219;-74
2023/08/24 02:31:29;;;;;;;;;7.00;7.00;;;;;24.32;91.77;101182.75;5079657;27;45297;-74
2023/08/24 02:33:54;;;;;;;;;8.00;8.00;;;;;24.35;90.66;101186.00;5093030;27;45315;-74
2023/08/24 02:36:19;;;;;;;;;8.00;8.00;;;;;24.38;90.50;101191.09;5081149;27;46628;-74
2023/08/24 02:38:45;;;;;;;;;7.67;7.67;;;;;24.34;90.94;101186.16;5081433;27;46096;-74
2023/08/24 02:41:10;;;;;;;;;9.00;7.33;;;;;24.33;90.17;101187.16;5087582;27;45357;-74
2023/08/24 02:43:36;;;;;;;;;9.00;7.00;;;;;24.27;90.75;101187.78;5089021;27;45314;-75
2023/08/24 02:46:07;;;;;;;;;8.00;8.00;;;;;24.21;90.90;101173.00;5088915;27;45407;-75
2023/08/24 02:48:33;;;;;;;;;9.00;8.00;;;;;24.18;91.57;101176.00;5082621;27;45556;-74
2023/08/24 02:50:59;;;;;;;;;8.00;6.67;;;;;24.17;91.77;101170.75;5089308;27;45419;-74
2023/08/24 02:53:25;;;;;;;;;10.33;8.33;;;;;24.20;91.46;101167.75;5085529;27;45307;-74
2023/08/24 02:55:51;;;;;;;;;8.00;8.00;;;;;24.13;90.59;101159.38;5084736;28;45284;-75
2023/08/24 02:58:16;;;;;;;;;8.67;8.67;;;;;24.11;91.40;101152.41;5103959;27;45477;-74
2023/08/24 03:00:42;;;;;;;;;6.67;6.67;;;;;24.12;93.70;101162.22;5105007;27;45357;-74
2023/08/24 03:03:07;;;;;;;;;9.33;8.33;;;;;24.12;92.27;101164.94;5101208;27;44956;-74
2023/08/24 03:05:32;;;;;;;;;9.00;9.00;;;;;24.09;91.76;101157.94;5084353;28;45390;-74
2023/08/24 03:07:59;;;;;;;;;10.00;8.33;;;;;24.02;92.26;101150.63;5102971;27;46307;-74
2023/08/24 03:10:24;;;;;;;;;9.33;9.00;;;;;24.04;92.37;101148.59;5093971;27;45289;-74
2023/08/24 03:12:50;;;;;;;;;9.67;9.33;;;;;23.98;92.65;101138.41;5085469;27;45428;-74
2023/08/24 03:15:15;;;;;;;;;8.00;8.00;;;;;23.99;93.54;101145.47;5081146;28;45272;-74
2023/08/24 03:17:41;;;;;;;;;9.00;8.00;;;;;23.97;93.60;101142.94;5081357;27;45344;-74
2023/08/24 03:20:07;;;;;;;;;9.00;9.00;;;;;23.93;93.08;101141.53;5086043;27;45579;-74
2023/08/24 03:22:32;;;;;;;;;9.00;9.00;;;;;23.95;93.61;101141.41;5088518;27;45202;-74
2023/08/24 03:24:58;;;;;;;;;9.00;9.00;;;;;23.93;94.52;101136.13;5085324;27;45259;-75
2023/08/24 03:27:23;;;;;;;;;9.33;9.00;;;;;23.92;93.35;101142.53;5090415;27;47586;-74
2023/08/24 03:29:48;;;;;;;;;8.00;7.67;;;;;23.83;93.39;101127.22;5087804;27;45252;-74
2023/08/24 03:32:13;;;;;;;;;9.00;8.00;;;;;23.90;94.31;101136.44;5100620;27;45342;-75
2023/08/24 03:34:40;;;;;;;;;9.00;9.00;;;;;23.86;94.22;101132.31;5085725;27;45506;-74
2023/08/24 03:37:05;;;;;;;;;10.00;10.00;;;;;23.84;94.84;101128.94;5082455;27;45222;-74
2023/08/24 03:39:31;;;;;;;;;8.00;8.00;;;;;23.81;94.08;101126.53;5080231;27;45305;-74
2023/08/24 03:41:56;;;;;;;;;11.00;8.00;;;;;23.77;93.48;101115.19;5078243;28;45450;-75
2023/08/24 03:44:21;;;;;;;;;10.00;8.00;;;;;23.79;95.03;101120.41;5080292;27;45476;-74
2023/08/24 03:46:47;;;;;;;;;7.67;7.00;;;;;23.78;93.37;101116.88;5093242;27;45364;-74
2023/08/24 03:49:12;;;;;;;;;9.67;9.00;;;;;23.82;93.22;101128.25;5080512;27;45332;-74
2023/08/24 03:51:37;;;;;;;;;7.67;7.67;;;;;23.81;93.89;101121.13;5094352;27;45399;-75
2023/08/24 03:54:05;;;;;;;;;8.33;8.33;;;;;23.79;93.67;101123.13;5087095;27;45272;-74
2023/08/24 03:56:30;;;;;;;;;8.67;8.67;;;;;23.77;93.44;101117.88;5092755;27;47708;-74
2023/08/24 03:58:55;;;;;;;;;9.67;8.33;;;;;23.78;93.69;101118.72;5081461;27;45305;-74
2023/08/24 04:01:22;;;;;;;;;8.67;8.67;;;;;23.69;93.05;101115.06;5085712;27;45277;-74
2023/08/24 04:03:47;;;;;;;;;9.67;7.67;;;;;23.77;94.75;101117.88;5087054;27;46304;-74
2023/08/24 04:06:13;;;;;;;;;6.67;6.00;;;;;23.70;94.95;101103.25;5080350;27;46136;-74
2023/08/24 04:08:38;;;;;;;;;11.00;11.00;;;;;23.77;92.28;101130.53;5091243;27;45371;-74
2023/08/24 04:11:03;;;;;;;;;12.33;10.00;;;;;23.69;92.96;101114.22;5082937;27;45499;-74
2023/08/24 04:13:29;;;;;;;;;11.00;9.00;;;;;23.76;93.93;101118.00;5080247;28;45301;-74
2023/08/24 04:15:54;;;;;;;;;11.00;11.00;;;;;23.76;92.66;101113.47;5090173;27;46525;-74
2023/08/24 04:18:19;;;;;;;;;11.67;11.00;;;;;23.67;93.26;101092.75;5082066;27;45408;-74
2023/08/24 04:20:45;;;;;;;;;8.00;8.00;;;;;23.76;92.85;101118.00;5094687;27;45495;-74
2023/08/24 04:23:13;;;;;;;;;12.00;11.00;;;;;23.67;94.91;101103.56;5080595;27;48189;-74
2023/08/24 04:25:43;;;;;;;;;10.33;10.00;;;;;23.67;93.18;101103.56;5092733;27;46017;-74
2023/08/24 04:28:08;;;;;;;;;12.00;10.33;;;;;23.72;93.27;101105.84;5083867;27;45335;-74
2023/08/24 04:30:33;;;;;;;;;12.00;10.00;;;;;23.68;92.54;101094.47;5080461;27;45530;-74
2023/08/24 04:32:59;;;;;;;;;9.33;8.67;;;;;23.67;93.45;101094.59;5079724;28;45422;-75
2023/08/24 04:35:26;;;;;;;;;11.33;10.33;;;;;23.69;94.63;101109.66;5081758;27;46100;-74
2023/08/24 04:37:51;;;;;;;;;11.00;11.00;;;;;23.65;94.02;101092.06;5080459;27;45415;-74
2023/08/24 04:40:17;;;;;;;;;11.67;11.33;;;;;23.54;93.36;101065.25;5079542;27;45399;-74
2023/08/24 04:42:42;;;;;;;;;9.67;9.00;;;;;23.59;95.42;101070.22;5089018;27;45439;-74
2023/08/24 04:45:08;;;;;;;;;10.33;10.33;;;;;23.63;95.92;101079.69;5079026;27;46223;-74
2023/08/24 04:47:33;;;;;;;;;10.67;9.00;;;;;23.61;93.47;101082.56;5089700;27;45374;-74
2023/08/24 04:49:58;;;;;;;;;11.00;10.00;;;;;23.56;94.05;101073.22;5083488;27;45267;-74
2023/08/24 04:52:24;;;;;;;;;8.67;8.67;;;;;23.42;94.13;101052.09;5079357;28;45332;-74
2023/08/24 04:54:49;;;;;;;;;10.67;9.67;;;;;23.52;94.22;101061.88;5078763;27;46066;-74
2023/08/24 04:57:15;;;;;;;;;8.67;7.33;;;;;23.54;94.42;101065.25;5079406;27;45407;-74
2023/08/24 04:59:40;;;;;;;;;9.00;9.00;;;;;23.49;93.38;101064.00;5074768;27;45346;-74
2023/08/24 05:02:05;;;;;;;;;12.67;11.33;;;;;23.52;91.31;101063.72;5079145;27;48726;-74
2023/08/24 05:04:30;;;;;;;;;11.00;10.00;;;;;23.53;91.45;101058.13;5085628;27;49229;-74
2023/08/24 05:06:56;;;;;;;;;11.33;9.33;;;;;23.44;91.00;101048.25;5078084;27;46101;-74
2023/08/24 05:09:22;;;;;;;;;11.33;9.00;;;;;23.59;89.79;101068.34;5079558;28;45412;-74
2023/08/24 05:11:48;;;;;;;;;9.67;9.00;;;;;23.56;88.71;101062.41;5092616;27;45245;-74
2023/08/24 05:14:13;;;;;;;;;10.00;9.00;;;;;23.57;89.46;101062.25;5079132;28;46471;-74
2023/08/24 05:16:39;;;;;;;;;14.00;9.33;;;;;23.66;88.99;101082.09;5083678;27;45434;-74
2023/08/24 05:19:04;;;;;;;;;8.00;7.33;;;;;23.67;90.54;101081.09;5089286;27;45355;-74
2023/08/24 05:21:30;;;;;;;;;10.67;10.67;;;;;23.65;89.01;101083.13;5061740;27;45459;-75
2023/08/24 05:23:55;;;;;;;;;9.33;8.33;;;;;23.69;88.73;101087.22;5090774;27;45408;-74
2023/08/24 05:26:24;;;;;;;;;11.00;9.00;;;;;23.72;89.81;101084.22;5080704;27;45515;-74
2023/08/24 05:28:50;;;;;;;;;10.00;10.00;;;;;23.71;89.53;101077.97;5080260;27;45410;-74
2023/08/24 05:31:15;;;;;;;;;12.00;8.00;;;;;23.78;88.41;101079.06;5078438;28;45469;-74
2023/08/24 05:33:40;;;;;;;;;7.67;7.67;;;;;23.82;90.25;101083.16;5083272;27;51518;-74
2023/08/24 05:36:06;;;;;;;;;9.67;9.33;;;;;23.89;87.87;101087.97;5081368;27;45537;-75
2023/08/24 05:38:31;;;;;;;;;10.00;10.00;;;;;24.00;90.23;101085.91;5098566;27;45313;-74
2023/08/24 05:40:56;;;;;;;;;9.67;8.00;;;;;24.07;90.83;101083.44;5094679;27;45415;-74
2023/08/24 05:43:22;;;;;;;;;10.33;9.33;;;;;24.13;87.33;101072.03;5078698;27;46020;-75
2023/08/24 05:45:50;;;;;;;;;8.67;7.67;;;;;24.22;86.13;101071.97;5094630;27;45533;-74
2023/08/24 05:48:16;;;;;;;;;9.33;9.33;;;;;24.32;88.05;101061.94;5083427;27;45292;-74
2023/08/24 05:50:46;;;;;;;;;9.33;9.33;;;;;24.45;88.99;101066.09;5081405;27;45390;-74
2023/08/24 05:53:12;;;;;;;;;10.00;10.00;;;;;24.52;90.01;101059.06;5099005;27;46135;-74
2023/08/24 05:55:38;;;;;;;;;14.67;11.67;;;;;24.58;91.68;101045.78;5088991;27;45320;-75
2023/08/24 05:58:03;;;;;;;;;8.00;7.00;;;;;24.52;87.96;101030.19;5096728;27;45221;-76
2023/08/24 06:00:29;;;;;;;;;9.33;8.33;;;;;24.63;86.86;101050.72;5082227;27;45477;-76
2023/08/24 06:02:55;;;;;;;;;10.67;10.33;;;;;24.68;91.07;101070.03;5083892;27;47142;-77
2023/08/24 06:05:20;;;;;;;;;11.67;9.33;;;;;24.67;88.25;101071.06;5090805;27;45493;-76
2023/08/24 06:07:46;;;;;;;;;11.50;10.00;;;;;24.58;84.54;101062.00;5083451;27;45299;-75
2023/08/24 06:10:12;;;;;;;;;7.00;7.00;;;;;24.67;87.37;101063.75;5082318;28;45299;-75
2023/08/24 06:12:37;;;;;;;;;9.67;8.67;;;;;24.67;88.17;101071.06;5082012;27;46919;-75
2023/08/24 06:15:04;;;;;;;;;9.00;9.00;;;;;24.60;89.38;101056.44;5085568;27;45241;-75
2023/08/24 06:17:30;;;;;;;;;12.33;11.67;;;;;24.57;86.29;101063.03;5083118;27;45436;-75
2023/08/24 06:19:55;;;;;;;;;12.00;12.00;;;;;24.61;85.29;101068.94;5088138;27;45494;-75
2023/08/24 06:22:20;;;;;;;;;9.00;9.00;;;;;24.59;86.13;101069.13;5086824;27;45419;-75
2023/08/24 06:24:46;;;;;;;;;13.00;10.00;;;;;24.57;82.90;101076.56;5082126;27;45340;-75
2023/08/24 06:27:11;;;;;;;;;9.00;9.00;;;;;24.65;86.90;101090.13;5081900;28;45326;-75
2023/08/24 06:29:36;;;;;;;;;11.67;9.67;;;;;24.48;81.95;101061.22;5100867;27;45373;-74
2023/08/24 06:32:02;;;;;;;;;9.67;8.33;;;;;24.49;84.47;101053.97;5089084;27;46469;-75
2023/08/24 06:34:27;;;;;;;;;12.67;9.00;;;;;24.67;82.14;101068.34;5082589;27;45206;-74
2023/08/24 06:36:53;;;;;;;;;10.33;9.00;;;;;24.70;83.36;101060.78;5085346;27;45364;-75
2023/08/24 06:39:19;;;;;;;;;6.67;6.67;;;;;24.74;83.99;101064.84;5092027;27;46221;-75
2023/08/24 06:41:44;;;;;;;;;9.33;9.33;;;;;24.74;82.24;101066.69;5099652;27;45995;-74
2023/08/24 06:44:10;;;;;;;;;11.00;11.00;;;;;24.83;84.54;101071.22;5085544;27;45465;-75
2023/08/24 06:46:35;;;;;;;;;9.67;9.00;;;;;24.85;83.03;101070.03;5091739;27;45477;-74
2023/08/24 06:49:01;;;;;;;;;10.00;8.67;;;;;24.81;80.06;101043.41;5086045;27;45249;-73
2023/08/24 06:51:27;;;;;;;;;12.67;10.00;;;;;24.92;80.65;101047.75;5089203;27;45345;-74
2023/08/24 06:53:53;;;;;;;;;12.00;10.67;;;;;25.04;80.95;101060.00;5085901;27;45305;-74
2023/08/24 06:56:18;;;;;;;;;10.33;10.00;;;;;25.17;83.65;101060.44;5074874;27;45398;-74
2023/08/24 06:58:45;;;;;;;;;9.33;9.00;;;;;25.25;80.95;101063.19;5084348;27;45356;-74
2023/08/24 07:01:10;;;;;;;;;10.67;10.00;;;;;25.26;82.66;101054.91;5069435;27;46184;-74
2023/08/24 07:03:36;;;;;;;;;11.67;10.00;;;;;25.37;82.62;101053.78;5086733;27;45389;-74
2023/08/24 07:06:02;;;;;;;;;9.00;9.00;;;;;25.38;79.50;101053.63;5081129;27;45403;-74
2023/08/24 07:08:27;;;;;;;;;11.67;11.67;;;;;25.47;82.78;101057.22;5089039;27;45556;-74
2023/08/24 07:10:52;;;;;;;;;11.33;9.67;;;;;25.47;81.46;101051.81;5086644;27;46249;-75
2023/08/24 07:13:18;;;;;;;;;11.00;11.00;;;;;25.59;78.90;101057.84;5081595;27;45446;-75
2023/08/24 07:15:45;;;;;;;;;11.67;10.00;;;;;25.69;78.44;101053.09;5080259;27;47218;-76
2023/08/24 07:18:10;;;;;;;;;10.00;10.00;;;;;25.78;75.59;101046.72;5080140;27;45517;-76
2023/08/24 07:20:37;;;;;;;;;10.67;10.67;;;;;25.96;74.50;101061.00;5080624;27;45320;-76
2023/08/24 07:23:03;;;;;;;;;10.00;10.00;;;;;26.04;75.02;101055.59;5093464;27;45553;-76
2023/08/24 07:25:28;;;;;;;;;9.33;9.33;;;;;26.15;74.08;101059.84;5081468;27;45288;-74
2023/08/24 07:27:58;;;;;;;;;9.67;8.00;;;;;26.21;77.01;101068.19;5079220;28;45493;-75
2023/08/24 07:30:24;;;;;;;;;11.67;9.00;;;;;26.23;77.91;101065.31;5080645;27;45391;-78
2023/08/24 07:32:50;;;;;;;;;8.00;8.00;;;;;26.23;74.52;101049.91;5080811;27;45980;-78
2023/08/24 07:35:16;;;;;;;;;10.00;9.33;;;;;26.21;78.18;101038.38;5082529;27;45398;-75
2023/08/24 07:37:41;;;;;;;;;11.00;11.00;;;;;26.19;79.04;101024.13;5084661;27;45367;-75
2023/08/24 07:40:08;;;;;;;;;11.67;10.33;;;;;26.07;73.94;101006.47;5095202;27;46109;-74
2023/08/24 07:42:43;;;;;;;;;8.67;8.67;;;;;26.21;74.31;101016.66;5090035;27;45386;-75
2023/08/24 07:45:09;;;;;;;;;11.00;8.67;;;;;26.40;73.86;101032.63;5089700;27;45446;-75
2023/08/24 07:47:34;;;;;;;;;11.00;10.33;;;;;26.41;73.83;101028.03;5088944;27;45284;-75
2023/08/24 07:49:59;;;;;;;;;13.00;10.00;;;;;26.47;73.42;101002.97;5090592;27;46181;-75
2023/08/24 07:52:27;;;;;;;;;9.00;8.00;;;;;26.67;75.15;101004.28;5083520;27;45392;-75
2023/08/24 07:54:52;;;;;;;;;9.00;9.00;;;;;26.72;75.83;100990.22;5090748;27;45395;-74
2023/08/24 07:57:17;;;;;;;;;10.00;8.00;;;;;26.68;73.55;100997.00;5083618;27;45285;-74
2023/08/24 07:59:43;;;;;;;;;11.00;10.00;;;;;26.71;72.23;101015.66;5080143;27;45384;-74
2023/08/24 08:02:09;;;;;;;;;9.67;9.00;;;;;26.79;68.15;101015.66;5081203;27;45551;-73
2023/08/24 08:04:34;;;;;;;;;9.67;9.67;;;;;26.98;66.35;101045.19;5097315;27;45751;-74
2023/08/24 08:07:00;;;;;;;;;9.00;9.00;;;;;27.14;66.86;101061.44;5085143;27;45447;-74
2023/08/24 08:09:25;;;;;;;;;10.00;9.00;;;;;27.26;65.69;101051.03;5080088;28;45345;-75
2023/08/24 08:11:51;;;;;;;;;10.67;9.00;;;;;27.24;63.33;101051.22;5079829;27;45271;-74
2023/08/24 08:14:16;;;;;;;;;10.67;9.67;;;;;27.18;65.49;101051.06;5100557;27;45486;-75
2023/08/24 08:16:42;;;;;;;;;9.67;9.00;;;;;27.28;67.03;101052.59;5098853;27;45512;-74
2023/08/24 08:19:07;;;;;;;;;9.00;9.00;;;;;27.36;65.40;101036.25;5096216;27;45457;-75
2023/08/24 08:21:32;;;;;;;;;10.67;9.67;;;;;27.53;64.96;101028.06;5081971;27;45435;-74
2023/08/24 08:23:58;;;;;;;;;11.00;11.00;;;;;27.77;65.93;101022.50;5099435;27;45581;-74
2023/08/24 08:26:23;;;;;;;;;3.33;3.33;;;;;27.89;65.54;101029.22;5093691;27;45410;-74
2023/08/24 08:28:48;;;;;;;;;13.00;10.33;;;;;27.98;64.38;101028.16;5080562;27;47705;-74
2023/08/24 08:31:14;;;;;;;;;11.67;11.00;;;;;27.95;64.26;101039.38;5083154;27;45589;-75
2023/08/24 08:33:39;;;;;;;;;12.33;10.33;;;;;27.75;66.57;101036.28;5087427;27;45804;-74
2023/08/24 08:36:04;;;;;;;;;10.33;10.33;;;;;27.52;67.80;101023.66;5096104;27;49407;-74
2023/08/24 08:38:30;;;;;;;;;12.33;10.67;;;;;27.47;69.11;101054.06;5096358;27;45826;-75
2023/08/24 08:41:03;;;;;;;;;11.00;9.67;;;;;27.40;68.05;101066.63;5088203;27;46407;-75
2023/08/24 08:43:30;;;;;;;;;11.00;10.00;;;;;27.23;67.47;101065.81;5085403;27;45498;-74
2023/08/24 08:45:56;;;;;;;;;10.00;10.00;;;;;27.19;68.18;101074.50;5101904;27;45438;-74
2023/08/24 08:48:22;;;;;;;;;9.67;8.00;;;;;27.15;69.08;101062.28;5084600;27;47273;-74
2023/08/24 08:50:56;;;;;;;;;9.67;9.67;;;;;27.10;68.50;101059.22;5080424;27;45288;-73
2023/08/24 08:53:22;;;;;;;;;13.00;12.00;;;;;27.09;68.05;101077.41;5082699;27;45431;-73
2023/08/24 08:55:51;;;;;;;;;10.67;10.67;;;;;27.23;66.94;101063.09;5081261;28;45341;-74
2023/08/24 08:58:17;;;;;;;;;11.00;9.67;;;;;27.23;69.09;101070.41;5081774;27;45240;-74
2023/08/24 09:00:43;;;;;;;;;8.00;8.00;;;;;27.27;70.75;101079.91;5080932;27;45842;-74
2023/08/24 09:03:09;;;;;;;;;12.00;10.33;;;;;27.24;68.18;101070.25;5081443;27;45568;-73
2023/08/24 09:05:37;;;;;;;;;10.33;9.00;;;;;27.32;67.72;101074.81;5086088;27;45573;-74
2023/08/24 09:08:05;;;;;;;;;6.33;6.00;;;;;27.31;68.27;101059.53;5081708;27;45935;-74
2023/08/24 09:10:31;;;;;;;;;11.67;10.00;;;;;27.35;68.87;101041.88;5083670;27;45450;-74
2023/08/24 09:12:56;;;;;;;;;10.33;9.00;;;;;27.43;69.88;101015.53;5082782;27;45303;-74
2023/08/24 09:15:28;;;;;;;;;9.00;9.00;;;;;27.69;70.19;101034.25;5081703;27;45281;-74
2023/08/24 09:17:56;;;;;;;;;12.33;10.00;;;;;27.73;66.08;101018.44;5079756;27;46129;-74
2023/08/24 09:20:21;;;;;;;;;11.33;11.33;;;;;27.67;66.16;101011.00;5079074;27;45565;-74
2023/08/24 09:22:46;;;;;;;;;12.00;9.67;;;;;27.57;68.63;100989.50;5079180;27;46363;-74
2023/08/24 09:25:12;;;;;;;;;10.67;10.00;;;;;27.52;66.14;100996.50;5093058;27;45523;-74
2023/08/24 09:27:37;;;;;;;;;12.33;12.33;;;;;27.51;64.92;101019.25;5068626;28;47225;-74
2023/08/24 09:30:03;;;;;;;;;10.00;9.00;;;;;27.41;65.61;101038.44;5081086;27;46063;-74
2023/08/24 09:32:30;;;;;;;;;10.00;8.00;;;;;27.15;66.86;101033.25;5079021;28;45315;-75
2023/08/24 09:34:55;;;;;;;;;11.00;10.00;;;;;27.22;69.37;101050.56;5090368;27;46377;-75
2023/08/24 09:37:21;;;;;;;;;9.00;9.00;;;;;27.32;68.73;101072.91;5083359;27;45607;-74
2023/08/24 09:39:47;;;;;;;;;10.00;10.00;;;;;27.35;69.43;101063.59;5092654;27;45502;-75
2023/08/24 09:42:13;;;;;;;;;11.00;9.33;;;;;27.38;68.97;101071.41;5087494;27;45508;-76
2023/08/24 09:44:45;;;;;;;;;10.00;9.00;;;;;27.42;67.38;101072.75;5084073;27;45553;-74
2023/08/24 09:47:11;;;;;;;;;8.67;8.67;;;;;27.38;67.14;101065.97;5097462;27;46284;-75
2023/08/24 09:49:37;;;;;;;;;10.33;8.67;;;;;27.49;66.53;101091.94;5097956;27;45377;-75
2023/08/24 09:52:06;;;;;;;;;9.00;9.00;;;;;27.57;66.24;101114.50;5092282;27;45531;-75
2023/08/24 09:54:35;;;;;;;;;9.00;8.00;;;;;27.58;65.00;101116.22;5091879;27;45375;-75
2023/08/24 09:57:02;;;;;;;;;11.33;9.00;;;;;27.52;66.25;101114.16;5098912;27;45482;-75
2023/08/24 09:59:31;;;;;;;;;11.67;9.33;;;;;27.49;69.03;101117.22;5083604;27;45372;-75
2023/08/24 10:01:57;;;;;;;;;8.67;8.33;;;;;27.41;66.69;101111.81;5084246;27;45320;-75
2023/08/24 10:04:25;;;;;;;;;9.33;8.00;;;;;27.36;65.02;101111.44;5086806;27;45230;-74
2023/08/24 10:06:59;;;;;;;;;11.33;9.33;;;;;27.36;67.16;101119.59;5088671;27;46353;-75
2023/08/24 10:09:34;;;;;;;;;10.00;8.67;;;;;27.28;68.02;101100.63;5086364;27;45700;-75
2023/08/24 10:12:03;;;;;;;;;12.67;8.67;;;;;27.35;68.85;101104.34;5085573;27;45316;-75
2023/08/24 10:14:32;;;;;;;;;9.67;8.33;;;;;27.26;68.21;101076.34;5096021;27;45530;-75
2023/08/24 10:16:58;;;;;;;;;8.33;8.33;;;;;27.36;67.81;101068.84;5091876;27;46393;-75
2023/08/24 10:19:25;;;;;;;;;8.00;8.00;;;;;27.40;67.84;101066.63;5063496;28;45351;-76
2023/08/24 10:21:53;;;;;;;;;7.00;7.00;;;;;27.42;66.94;101073.56;5082053;27;45488;-75
2023/08/24 10:24:20;;;;;;;;;10.67;9.67;;;;;27.47;67.94;101066.81;5088906;27;45441;-75
2023/08/24 10:26:47;;;;;;;;;10.67;9.33;;;;;27.49;68.72;101068.31;5095338;27;45496;-76
2023/08/24 10:29:13;;;;;;;;;9.00;9.00;;;;;27.54;66.75;101082.25;5086285;27;45564;-76
2023/08/24 10:31:40;;;;;;;;;11.00;8.33;;;;;27.52;66.51;101092.41;5090143;27;45291;-74
2023/08/24 10:34:07;;;;;;;;;10.00;9.33;;;;;27.58;67.78;101099.03;5085991;27;45297;-73
2023/08/24 10:36:33;;;;;;;;;10.67;10.33;;;;;27.62;69.08;101108.53;5080217;27;45403;-73
2023/08/24 10:39:05;;;;;;;;;12.33;11.33;;;;;27.58;66.00;101126.22;5081082;27;45339;-73
2023/08/24 10:41:46;;;;;;;;;11.33;9.67;;;;;27.44;65.69;101125.06;5081490;28;45360;-74
2023/08/24 10:44:20;;;;;;;;;10.67;8.00;;;;;27.40;67.25;101129.97;5095086;27;45309;-74
2023/08/24 10:47:28;;;;;;;;;8.00;8.00;;;;;27.37;66.78;101141.19;5081944;28;45290;-76
2023/08/24 10:49:56;;;;;;;;;8.33;8.33;;;;;27.33;65.96;101150.69;5083815;27;45393;-74
2023/08/24 10:52:21;;;;;;;;;6.00;6.00;;;;;27.29;65.11;101159.38;5088783;27;45374;-74
2023/08/24 10:54:51;;;;;;;;;9.00;9.00;;;;;27.18;66.49;101144.28;5099502;27;45404;-74
2023/08/24 10:57:22;;;;;;;;;10.67;9.33;;;;;27.20;65.88;101141.38;5091642;27;45269;-74
2023/08/24 10:59:59;;;;;;;;;7.00;7.00;;;;;27.18;69.71;101130.69;5088711;28;45346;-74
2023/08/24 11:02:24;;;;;;;;;9.67;8.00;;;;;27.19;66.68;101142.41;5113962;27;45398;-74
2023/08/24 11:05:06;;;;;;;;;8.67;8.67;;;;;27.12;68.05;101154.97;5105843;27;45364;-75
2023/08/24 11:07:32;;;;;;;;;8.33;8.33;;;;;27.11;68.22;101137.81;5106195;27;46601;-75
2023/08/24 11:09:57;;;;;;;;;6.00;6.00;;;;;26.92;67.87;101116.44;5093693;27;45370;-74
2023/08/24 11:12:23;;;;;;;;;8.00;8.00;;;;;26.97;68.12;101140.34;5092973;28;45282;-74
2023/08/24 11:14:54;;;;;;;;;8.00;7.00;;;;;26.94;70.46;101136.13;5093647;27;45184;-74
2023/08/24 11:17:21;;;;;;;;;7.00;6.67;;;;;26.92;71.32;101130.03;5099031;27;45408;-74